Time;durP1;ratioP1;P1;durP2;ratioP2;P2;SDS_P1;SDS_P2;PMS_P1;PMS_P2;Temp;Humidity;BMP_temperature;BMP_pressure;BME280_temperature;BME280_humidity;BME280_pressure;Samples;Min_cycle;Max_cycle;Signal;HPM_P1;HPM_P2
2023/05/31 00:00:30;;;;;;;4.60;2.90;;;13.30;99.90;;;;;;5085870;28;20036;-42
2023/05/31 00:02:56;;;;;;;2.53;2.30;;;13.30;99.90;;;;;;5086031;28;20201;-41
2023/05/31 00:05:21;;;;;;;3.40;3.10;;;13.30;99.90;;;;;;5084657;28;20135;-42
2023/05/31 00:07:47;;;;;;;3.40;2.60;;;13.30;99.90;;;;;;5085363;28;20153;-42
2023/05/31 00:10:12;;;;;;;3.13;2.83;;;13.20;99.90;;;;;;5085098;28;20039;-42
2023/05/31 00:12:38;;;;;;;3.70;3.08;;;13.20;99.90;;;;;;5084479;28;20031;-43
2023/05/31 00:15:07;;;;;;;3.60;2.97;;;13.20;99.90;;;;;;5085033;28;20063;-41
2023/05/31 00:17:32;;;;;;;2.70;2.50;;;13.20;99.90;;;;;;5085393;28;20036;-43
2023/05/31 00:19:58;;;;;;;3.53;2.70;;;13.10;99.90;;;;;;5084588;28;20476;-43
2023/05/31 00:22:23;;;;;;;2.55;2.20;;;13.10;99.90;;;;;;5085127;28;20520;-43
2023/05/31 00:24:49;;;;;;;4.65;2.42;;;13.10;99.90;;;;;;5084923;28;20023;-42
2023/05/31 00:27:15;;;;;;;4.07;3.00;;;13.10;99.90;;;;;;5084889;28;20557;-44
2023/05/31 00:29:40;;;;;;;5.45;3.13;;;13.10;99.90;;;;;;5084907;28;20043;-42
2023/05/31 00:32:06;;;;;;;3.95;2.80;;;13.00;99.90;;;;;;5084315;28;20615;-41
2023/05/31 00:34:32;;;;;;;4.13;3.05;;;13.00;99.90;;;;;;5084472;28;20091;-42
2023/05/31 00:36:57;;;;;;;3.05;2.45;;;13.00;99.90;;;;;;5085083;28;20340;-41
2023/05/31 00:39:23;;;;;;;6.50;3.15;;;12.90;99.90;;;;;;5084133;28;20030;-42
2023/05/31 00:41:49;;;;;;;4.60;3.10;;;12.90;99.90;;;;;;5084759;28;20012;-42
2023/05/31 00:44:14;;;;;;;3.53;3.08;;;12.90;99.90;;;;;;5084609;28;20164;-42
2023/05/31 00:46:41;;;;;;;3.30;2.88;;;12.90;99.90;;;;;;5083625;28;20023;-43
2023/05/31 00:49:07;;;;;;;3.30;2.90;;;12.90;99.90;;;;;;5084394;28;20376;-42
2023/05/31 00:51:35;;;;;;;5.18;2.85;;;12.80;99.90;;;;;;5084161;28;20440;-43
2023/05/31 00:54:01;;;;;;;2.97;2.55;;;12.80;99.90;;;;;;5084861;28;20048;-43
2023/05/31 00:56:27;;;;;;;4.22;3.33;;;12.90;99.90;;;;;;5083725;28;20198;-41
2023/05/31 00:58:55;;;;;;;5.35;3.47;;;12.80;99.90;;;;;;5084490;28;20028;-42
2023/05/31 01:01:26;;;;;;;4.13;3.30;;;12.80;99.90;;;;;;5083397;28;20023;-41
2023/05/31 01:03:56;;;;;;;4.47;3.22;;;12.80;99.90;;;;;;5084631;28;20047;-39
2023/05/31 01:06:23;;;;;;;4.93;3.33;;;12.80;99.90;;;;;;5084324;28;20032;-43
2023/05/31 01:08:49;;;;;;;4.82;3.40;;;12.70;99.90;;;;;;5083791;28;20105;-43
2023/05/31 01:11:31;;;;;;;4.63;3.45;;;12.70;99.90;;;;;;5083890;28;20467;-42
2023/05/31 01:14:19;;;;;;;4.53;4.05;;;12.60;99.90;;;;;;5084001;28;20027;-41
2023/05/31 01:16:52;;;;;;;6.45;3.95;;;12.60;99.90;;;;;;5084554;28;20032;-41
2023/05/31 01:19:36;;;;;;;4.90;3.25;;;12.60;99.90;;;;;;5085062;28;20020;-41
2023/05/31 01:22:14;;;;;;;5.18;3.88;;;12.60;99.90;;;;;;5082274;28;20499;-43
2023/05/31 01:25:07;;;;;;;6.22;4.15;;;12.60;99.90;;;;;;5083393;28;20333;-42
2023/05/31 01:27:34;;;;;;;5.60;4.10;;;12.50;99.90;;;;;;5083074;28;20558;-43
2023/05/31 01:30:02;;;;;;;5.30;3.88;;;12.50;99.90;;;;;;5083629;28;20020;-42
2023/05/31 01:32:28;;;;;;;6.68;3.95;;;12.50;99.90;;;;;;5083538;28;20781;-42
2023/05/31 01:34:53;;;;;;;4.50;3.80;;;12.50;99.90;;;;;;5083557;28;20024;-41
2023/05/31 01:37:19;;;;;;;5.68;4.15;;;12.50;99.90;;;;;;5082999;28;20027;-41
2023/05/31 01:39:46;;;;;;;4.95;3.75;;;12.50;99.90;;;;;;5083665;28;20589;-41
2023/05/31 01:42:13;;;;;;;6.57;4.00;;;12.50;99.90;;;;;;5082914;28;20024;-41
2023/05/31 01:44:40;;;;;;;4.53;3.72;;;12.50;99.90;;;;;;5083084;28;20446;-42
2023/05/31 01:47:07;;;;;;;5.57;3.90;;;12.40;99.90;;;;;;5083307;28;20073;-43
2023/05/31 01:49:35;;;;;;;4.68;4.03;;;12.50;99.90;;;;;;5082648;28;20031;-42
2023/05/31 01:52:02;;;;;;;5.65;4.13;;;12.40;99.90;;;;;;5083678;28;20073;-41
2023/05/31 01:54:27;;;;;;;4.78;3.60;;;12.40;99.90;;;;;;5083760;28;20032;-41
2023/05/31 01:56:53;;;;;;;6.30;4.60;;;12.40;99.90;;;;;;5082593;28;20433;-41
2023/05/31 01:59:19;;;;;;;6.47;4.30;;;12.40;99.90;;;;;;5083606;28;20137;-43
2023/05/31 02:01:47;;;;;;;6.68;3.92;;;12.40;99.90;;;;;;5083697;28;20400;-43
2023/05/31 02:04:12;;;;;;;5.25;4.20;;;12.40;99.90;;;;;;5082464;28;20024;-43
2023/05/31 02:06:41;;;;;;;6.13;4.30;;;12.40;99.90;;;;;;5083786;28;20032;-41
2023/05/31 02:09:06;;;;;;;5.88;4.22;;;12.40;99.90;;;;;;5083112;28;20020;-42
2023/05/31 02:11:32;;;;;;;5.55;4.53;;;12.40;99.90;;;;;;5082759;28;20028;-42
2023/05/31 02:13:57;;;;;;;5.65;4.07;;;12.40;99.90;;;;;;5082670;28;20036;-43
2023/05/31 02:16:26;;;;;;;7.45;4.50;;;12.40;99.90;;;;;;5083229;28;20471;-41
2023/05/31 02:18:51;;;;;;;7.05;4.90;;;12.40;99.90;;;;;;5082354;28;20028;-42
2023/05/31 02:21:17;;;;;;;7.40;4.78;;;12.40;99.90;;;;;;5085093;28;20042;-42
2023/05/31 02:23:42;;;;;;;6.32;4.78;;;12.40;99.90;;;;;;5089659;28;20024;-43
2023/05/31 02:26:08;;;;;;;7.07;4.57;;;12.30;99.90;;;;;;5089174;28;20035;-42
2023/05/31 02:28:34;;;;;;;3.97;3.53;;;12.30;99.90;;;;;;5089250;28;20024;-42
2023/05/31 02:31:00;;;;;;;7.68;5.40;;;12.30;99.90;;;;;;5089510;28;20024;-42
2023/05/31 02:33:27;;;;;;;6.68;4.90;;;12.30;99.90;;;;;;5088763;28;20020;-42
2023/05/31 02:35:53;;;;;;;6.63;4.65;;;12.30;99.90;;;;;;5089722;28;20569;-42
2023/05/31 02:38:20;;;;;;;5.65;4.57;;;12.30;99.90;;;;;;5089773;28;20024;-42
2023/05/31 02:40:46;;;;;;;7.53;4.95;;;12.30;99.90;;;;;;5089456;28;20020;-41
2023/05/31 02:43:12;;;;;;;7.13;5.35;;;12.30;99.90;;;;;;5090230;28;20035;-41
2023/05/31 02:45:37;;;;;;;8.35;5.38;;;12.30;99.90;;;;;;5089300;28;20028;-43
2023/05/31 02:48:06;;;;;;;7.53;5.47;;;12.30;99.90;;;;;;5089889;28;20027;-42
2023/05/31 02:50:32;;;;;;;7.40;5.10;;;12.30;99.90;;;;;;5089806;28;20071;-43
2023/05/31 02:53:00;;;;;;;7.93;5.72;;;12.30;99.90;;;;;;5089506;28;20571;-42
2023/05/31 02:55:25;;;;;;;7.43;5.82;;;12.20;99.90;;;;;;5089259;28;20067;-42
2023/05/31 02:57:52;;;;;;;7.18;5.55;;;12.20;99.90;;;;;;5089503;28;20142;-41
2023/05/31 03:00:20;;;;;;;8.48;5.57;;;12.20;99.90;;;;;;5088623;28;20020;-42
2023/05/31 03:02:46;;;;;;;5.90;5.10;;;12.20;99.90;;;;;;5089691;28;20113;-43
2023/05/31 03:05:11;;;;;;;8.80;5.65;;;12.20;99.90;;;;;;5089460;28;20383;-42
2023/05/31 03:07:37;;;;;;;7.75;5.35;;;12.20;99.90;;;;;;5088586;28;20517;-43
2023/05/31 03:10:10;;;;;;;7.95;5.05;;;12.20;99.90;;;;;;5089814;28;20718;-41
2023/05/31 03:12:36;;;;;;;7.15;4.90;;;12.20;99.90;;;;;;5089326;28;20032;-42
2023/05/31 03:15:03;;;;;;;6.88;5.05;;;12.20;99.90;;;;;;5088562;28;20047;-42
2023/05/31 03:17:28;;;;;;;7.70;5.57;;;12.20;99.90;;;;;;5089399;28;20048;-41
2023/05/31 03:19:54;;;;;;;7.05;5.07;;;12.20;99.90;;;;;;5090139;28;20028;-42
2023/05/31 03:22:21;;;;;;;8.10;6.00;;;12.10;99.90;;;;;;5088523;28;20016;-41
2023/05/31 03:24:47;;;;;;;7.75;5.72;;;12.10;99.90;;;;;;5089734;28;20024;-43
2023/05/31 03:27:13;;;;;;;6.97;5.25;;;12.10;99.90;;;;;;5088929;28;20046;-41
2023/05/31 03:29:41;;;;;;;7.18;5.95;;;12.10;99.90;;;;;;5088838;28;20027;-42
2023/05/31 03:32:06;;;;;;;9.63;6.43;;;12.10;99.90;;;;;;5089199;28;20149;-42
2023/05/31 03:34:32;;;;;;;7.85;5.20;;;12.10;99.90;;;;;;5086100;28;20472;-42
2023/05/31 03:36:59;;;;;;;6.85;5.35;;;12.10;99.90;;;;;;5085520;28;20028;-42
2023/05/31 03:39:24;;;;;;;8.70;5.97;;;12.00;99.90;;;;;;5085574;28;20467;-43
2023/05/31 03:41:50;;;;;;;7.57;5.53;;;12.00;99.90;;;;;;5085974;28;20069;-42
2023/05/31 03:44:16;;;;;;;8.27;6.22;;;12.10;99.90;;;;;;5085739;28;20028;-41
2023/05/31 03:46:41;;;;;;;9.35;6.75;;;12.00;99.90;;;;;;5087147;28;20036;-42
2023/05/31 03:49:07;;;;;;;7.65;5.55;;;12.00;99.90;;;;;;5085506;28;20135;-41
2023/05/31 03:51:33;;;;;;;6.78;5.43;;;12.10;99.90;;;;;;5085865;28;20027;-42
2023/05/31 03:53:58;;;;;;;7.70;5.80;;;12.00;99.90;;;;;;5085819;28;20024;-42
2023/05/31 03:56:24;;;;;;;8.75;5.95;;;12.00;99.90;;;;;;5083992;28;20067;-42
2023/05/31 03:58:52;;;;;;;10.05;6.13;;;12.00;99.90;;;;;;5086367;28;20064;-42
2023/05/31 04:01:18;;;;;;;10.10;6.72;;;12.00;99.90;;;;;;5085379;28;20923;-41
2023/05/31 04:03:43;;;;;;;10.07;6.13;;;12.00;99.90;;;;;;5084759;28;20475;-45
2023/05/31 04:06:09;;;;;;;8.25;5.80;;;12.00;99.90;;;;;;5085626;28;20483;-43
2023/05/31 04:08:38;;;;;;;10.65;5.80;;;12.00;99.90;;;;;;5085417;28;20024;-41
2023/05/31 04:11:04;;;;;;;7.50;5.72;;;12.00;99.90;;;;;;5085285;28;20383;-43
2023/05/31 04:13:30;;;;;;;10.63;6.35;;;12.00;99.90;;;;;;5085390;28;20024;-43
2023/05/31 04:15:55;;;;;;;8.13;6.05;;;12.00;99.90;;;;;;5085991;28;20109;-42
2023/05/31 04:18:21;;;;;;;9.18;6.50;;;12.00;99.90;;;;;;5083745;28;20039;-42
2023/05/31 04:20:46;;;;;;;9.95;7.45;;;12.00;99.90;;;;;;5085689;28;20028;-41
2023/05/31 04:23:12;;;;;;;8.32;6.10;;;12.00;99.90;;;;;;5085451;28;20085;-41
2023/05/31 04:25:37;;;;;;;9.98;6.38;;;12.00;99.90;;;;;;5084884;28;20043;-42
2023/05/31 04:28:06;;;;;;;9.43;6.80;;;12.00;99.90;;;;;;5085495;28;20023;-40
2023/05/31 04:30:32;;;;;;;9.05;6.97;;;12.00;99.90;;;;;;5084909;28;20032;-42
2023/05/31 04:32:58;;;;;;;9.43;6.40;;;12.00;99.90;;;;;;5084981;28;20095;-43
2023/05/31 04:35:28;;;;;;;10.40;8.07;;;12.00;99.90;;;;;;5084435;28;20024;-42
2023/05/31 04:37:58;;;;;;;10.43;7.78;;;12.10;99.90;;;;;;5084823;28;20032;-42
2023/05/31 04:40:25;;;;;;;10.15;7.82;;;12.10;99.90;;;;;;5084335;28;20076;-42
2023/05/31 04:42:50;;;;;;;9.65;7.63;;;12.10;99.90;;;;;;5084941;28;20020;-42
2023/05/31 04:45:16;;;;;;;13.02;7.47;;;12.20;99.90;;;;;;5083820;28;20034;-42
2023/05/31 04:47:41;;;;;;;12.05;8.25;;;12.20;99.90;;;;;;5084158;28;20039;-42
2023/05/31 04:50:07;;;;;;;11.13;7.97;;;12.20;99.90;;;;;;5084706;28;20024;-42
2023/05/31 04:52:33;;;;;;;9.52;7.40;;;12.20;99.90;;;;;;5083988;28;20540;-42
2023/05/31 04:55:00;;;;;;;10.45;8.00;;;12.20;99.90;;;;;;5085174;28;20020;-43
2023/05/31 04:57:26;;;;;;;11.15;7.95;;;12.20;99.90;;;;;;5083970;28;20483;-41
2023/05/31 04:59:56;;;;;;;9.88;7.00;;;12.20;99.90;;;;;;5084187;28;20035;-42
2023/05/31 05:02:22;;;;;;;13.98;8.63;;;12.30;99.90;;;;;;5083942;28;20936;-40
2023/05/31 05:04:48;;;;;;;12.07;8.30;;;12.30;99.90;;;;;;5084794;28;20028;-42
2023/05/31 05:07:14;;;;;;;14.40;9.10;;;12.30;99.90;;;;;;5083685;28;20024;-43
2023/05/31 05:09:40;;;;;;;11.80;8.43;;;12.30;99.90;;;;;;5083798;28;20110;-43
2023/05/31 05:12:07;;;;;;;11.02;8.00;;;12.30;99.90;;;;;;5084793;28;20373;-43
2023/05/31 05:14:33;;;;;;;12.65;8.57;;;12.40;99.90;;;;;;5083078;28;20075;-42
2023/05/31 05:16:58;;;;;;;13.30;9.40;;;12.40;99.90;;;;;;5084758;28;20494;-42
2023/05/31 05:19:24;;;;;;;14.10;9.73;;;12.40;99.90;;;;;;5083494;28;20110;-42
2023/05/31 05:21:53;;;;;;;12.13;9.30;;;12.40;99.90;;;;;;5084141;28;20074;-43
2023/05/31 05:24:19;;;;;;;10.90;8.00;;;12.50;99.90;;;;;;5083606;28;20062;-42
2023/05/31 05:26:45;;;;;;;13.15;8.68;;;12.50;99.90;;;;;;5083803;28;20103;-43
2023/05/31 05:29:10;;;;;;;10.70;8.23;;;12.60;99.90;;;;;;5083576;28;20031;-43
2023/05/31 05:31:36;;;;;;;11.85;7.78;;;12.60;99.90;;;;;;5083933;28;20020;-43
2023/05/31 05:34:01;;;;;;;11.48;7.53;;;12.70;99.90;;;;;;5084131;28;20036;-41
2023/05/31 05:36:27;;;;;;;11.95;8.93;;;12.70;99.90;;;;;;5082751;28;20453;-42
2023/05/31 05:38:53;;;;;;;12.82;8.82;;;12.70;99.90;;;;;;5085910;28;20024;-43
2023/05/31 05:41:18;;;;;;;11.55;9.15;;;12.80;99.90;;;;;;5083621;28;20031;-42
2023/05/31 05:43:44;;;;;;;11.48;8.40;;;12.80;99.90;;;;;;5083691;28;20478;-43
2023/05/31 05:46:09;;;;;;;10.38;7.72;;;12.80;99.90;;;;;;5084227;28;20531;-42
2023/05/31 05:48:35;;;;;;;11.95;8.88;;;12.90;99.90;;;;;;5080843;28;20065;-43
2023/05/31 05:51:04;;;;;;;18.80;8.73;;;12.90;99.90;;;;;;5082504;28;20024;-42
2023/05/31 05:53:32;;;;;;;10.45;7.68;;;13.00;99.90;;;;;;5081892;28;20028;-42
2023/05/31 05:55:58;;;;;;;10.60;7.90;;;13.00;99.90;;;;;;5081484;28;20865;-43
2023/05/31 05:58:23;;;;;;;10.35;7.90;;;13.00;99.90;;;;;;5081512;28;20055;-42
2023/05/31 06:00:49;;;;;;;10.90;6.78;;;13.10;99.90;;;;;;5082682;28;20070;-42
2023/05/31 06:03:15;;;;;;;10.70;7.85;;;13.10;99.90;;;;;;5082552;28;20032;-43
2023/05/31 06:05:44;;;;;;;10.25;7.55;;;13.20;99.90;;;;;;5082303;28;20103;-42
2023/05/31 06:08:10;;;;;;;10.25;7.15;;;13.20;99.90;;;;;;5082651;28;20479;-42
2023/05/31 06:10:36;;;;;;;9.10;6.90;;;13.20;99.90;;;;;;5081808;28;20043;-42
2023/05/31 06:13:03;;;;;;;9.55;6.45;;;13.30;99.90;;;;;;5082504;28;20039;-43
2023/05/31 06:15:28;;;;;;;10.25;7.10;;;13.40;99.90;;;;;;5082461;28;20107;-42
2023/05/31 06:17:54;;;;;;;7.90;5.80;;;13.40;99.90;;;;;;5082297;28;20135;-42
2023/05/31 06:20:21;;;;;;;10.80;6.72;;;13.50;99.90;;;;;;5081361;28;20662;-41
2023/05/31 06:22:47;;;;;;;8.07;6.07;;;13.50;99.90;;;;;;5081988;28;20038;-42
2023/05/31 06:25:13;;;;;;;8.73;5.63;;;13.60;99.90;;;;;;5082028;28;20780;-42
2023/05/31 06:27:38;;;;;;;7.53;5.70;;;13.70;99.90;;;;;;5081285;28;20024;-41
2023/05/31 06:30:05;;;;;;;8.30;5.68;;;13.80;99.90;;;;;;5082816;28;20410;-42
2023/05/31 06:32:30;;;;;;;8.77;5.55;;;13.80;99.90;;;;;;5081307;28;20032;-42
2023/05/31 06:34:56;;;;;;;6.38;5.50;;;13.90;99.90;;;;;;5083222;28;20028;-42
2023/05/31 06:37:22;;;;;;;7.88;5.35;;;13.90;99.90;;;;;;5090561;28;20539;-43
2023/05/31 06:39:48;;;;;;;8.75;5.47;;;14.00;99.90;;;;;;5083019;28;20069;-43
2023/05/31 06:42:14;;;;;;;9.70;5.03;;;14.10;99.90;;;;;;5083167;28;20020;-43
2023/05/31 06:44:42;;;;;;;7.88;4.63;;;14.20;99.90;;;;;;5082809;28;20380;-42
2023/05/31 06:47:09;;;;;;;8.38;5.10;;;14.20;99.90;;;;;;5082649;28;20060;-42
2023/05/31 06:49:34;;;;;;;7.15;5.00;;;14.30;99.90;;;;;;5082769;28;20059;-42
2023/05/31 06:52:03;;;;;;;6.18;4.13;;;14.40;99.90;;;;;;5082763;28;20047;-42
2023/05/31 06:54:29;;;;;;;7.13;4.30;;;14.40;99.90;;;;;;5082677;28;20024;-40
2023/05/31 06:56:54;;;;;;;8.20;4.95;;;14.50;99.90;;;;;;5082781;28;20052;-43
2023/05/31 06:59:20;;;;;;;6.63;4.30;;;14.60;99.90;;;;;;5081778;28;20028;-43
2023/05/31 07:01:46;;;;;;;7.63;4.43;;;14.70;99.90;;;;;;5082982;28;20123;-43
2023/05/31 07:04:12;;;;;;;6.60;4.65;;;14.80;99.90;;;;;;5082575;28;20114;-44
2023/05/31 07:06:37;;;;;;;7.53;4.80;;;14.90;99.90;;;;;;5081957;28;20023;-42
2023/05/31 07:09:06;;;;;;;5.93;4.57;;;14.90;99.90;;;;;;5085639;28;20012;-42
2023/05/31 07:11:32;;;;;;;5.68;4.13;;;15.00;99.90;;;;;;5085742;28;20036;-42
2023/05/31 07:14:01;;;;;;;7.18;4.65;;;15.10;99.90;;;;;;5086037;28;20133;-43
2023/05/31 07:16:27;;;;;;;5.93;4.05;;;15.10;99.90;;;;;;5086005;28;20048;-42
2023/05/31 07:18:53;;;;;;;6.10;3.95;;;15.10;99.90;;;;;;5086261;28;20439;-42
2023/05/31 07:21:19;;;;;;;8.35;4.50;;;15.20;99.90;;;;;;5085686;28;20020;-44
2023/05/31 07:23:45;;;;;;;5.78;4.32;;;15.30;99.90;;;;;;5086296;28;20028;-42
2023/05/31 07:26:10;;;;;;;8.57;4.63;;;15.40;99.90;;;;;;5086265;28;20048;-43
2023/05/31 07:28:36;;;;;;;7.65;4.20;;;15.40;99.90;;;;;;5085115;28;20796;-42
2023/05/31 07:31:02;;;;;;;6.07;4.40;;;15.50;99.90;;;;;;5086392;28;20483;-43
2023/05/31 07:33:28;;;;;;;9.98;4.93;;;15.50;99.90;;;;;;5084917;28;20032;-43
2023/05/31 07:35:54;;;;;;;6.60;4.32;;;15.70;99.90;;;;;;5085655;28;20048;-43
2023/05/31 07:38:19;;;;;;;6.65;3.85;;;15.80;99.90;;;;;;5084924;28;20097;-43
2023/05/31 07:40:45;;;;;;;7.00;4.30;;;15.90;99.90;;;;;;5085982;28;20028;-42
2023/05/31 07:43:10;;;;;;;5.55;3.65;;;15.90;99.90;;;;;;5085790;28;20030;-44
2023/05/31 07:45:38;;;;;;;4.47;3.75;;;16.00;99.90;;;;;;5085514;28;20521;-41
2023/05/31 07:48:04;;;;;;;5.90;3.70;;;16.10;99.90;;;;;;5086523;28;20028;-41
2023/05/31 07:50:30;;;;;;;4.90;3.15;;;16.10;99.90;;;;;;5084636;28;20028;-43
2023/05/31 07:52:55;;;;;;;5.65;3.10;;;16.20;99.90;;;;;;5086756;28;20051;-41
2023/05/31 07:55:21;;;;;;;7.00;4.38;;;16.30;99.90;;;;;;5084939;28;20024;-42
2023/05/31 07:57:46;;;;;;;6.60;4.00;;;16.30;99.90;;;;;;5085248;28;20087;-42
2023/05/31 08:00:15;;;;;;;6.15;3.95;;;16.40;99.90;;;;;;5086017;28;20502;-41
2023/05/31 08:02:41;;;;;;;7.05;3.72;;;16.50;99.90;;;;;;5085204;28;20035;-42
2023/05/31 08:05:07;;;;;;;6.03;3.58;;;16.50;99.90;;;;;;5085973;28;20706;-43
2023/05/31 08:07:33;;;;;;;4.60;3.63;;;16.50;99.90;;;;;;5085302;28;20570;-42
2023/05/31 08:09:58;;;;;;;5.95;4.00;;;16.60;99.90;;;;;;5084874;28;20020;-41
2023/05/31 08:12:24;;;;;;;5.68;3.33;;;16.60;99.90;;;;;;5084618;28;20037;-42
2023/05/31 08:14:50;;;;;;;7.03;3.25;;;16.70;99.90;;;;;;5085144;28;20024;-43
2023/05/31 08:17:15;;;;;;;6.20;3.50;;;16.70;99.90;;;;;;5084614;28;20028;-42
2023/05/31 08:19:41;;;;;;;6.75;3.67;;;16.80;99.90;;;;;;5083691;28;20459;-43
2023/05/31 08:22:07;;;;;;;7.25;4.18;;;16.80;99.90;;;;;;5085108;28;20531;-42
2023/05/31 08:24:32;;;;;;;5.65;3.58;;;16.80;99.90;;;;;;5084255;28;20016;-41
2023/05/31 08:26:58;;;;;;;7.45;3.67;;;17.00;99.90;;;;;;5084877;28;20592;-43
2023/05/31 08:29:23;;;;;;;7.75;3.80;;;17.00;99.90;;;;;;5084596;28;20439;-43
2023/05/31 08:31:49;;;;;;;5.97;3.60;;;17.10;99.90;;;;;;5083655;28;20157;-42
2023/05/31 08:34:15;;;;;;;6.90;3.72;;;17.10;99.90;;;;;;5085595;28;20032;-43
2023/05/31 08:36:40;;;;;;;6.15;3.80;;;17.20;99.90;;;;;;5084519;28;20028;-43
2023/05/31 08:39:09;;;;;;;7.30;3.90;;;17.20;99.90;;;;;;5084666;28;20020;-42
2023/05/31 08:41:43;;;;;;;5.72;3.20;;;17.30;99.90;;;;;;5083958;28;20107;-43
2023/05/31 08:44:10;;;;;;;5.53;2.92;;;17.30;99.90;;;;;;5085573;28;20136;-42
2023/05/31 08:46:36;;;;;;;5.85;3.45;;;17.40;99.90;;;;;;5083135;28;20497;-41
2023/05/31 08:49:12;;;;;;;5.53;3.47;;;17.50;99.90;;;;;;5084928;28;20028;-43
2023/05/31 08:51:39;;;;;;;6.22;3.42;;;17.60;99.90;;;;;;5083384;28;20028;-43
2023/05/31 08:54:06;;;;;;;4.78;3.33;;;17.60;99.90;;;;;;5085037;28;20032;-43
2023/05/31 08:56:39;;;;;;;6.70;3.70;;;17.70;99.90;;;;;;5083551;28;20039;-42
2023/05/31 08:59:10;;;;;;;8.20;3.25;;;17.70;99.90;;;;;;5084745;28;20140;-41
2023/05/31 09:01:41;;;;;;;6.55;3.63;;;17.80;99.90;;;;;;5083306;28;20036;-43
2023/05/31 09:04:13;;;;;;;4.57;3.58;;;17.90;99.90;;;;;;5084146;28;20103;-42
2023/05/31 09:06:43;;;;;;;8.02;3.63;;;18.00;99.90;;;;;;5083235;28;20028;-42
2023/05/31 09:09:08;;;;;;;6.38;3.70;;;18.10;99.90;;;;;;5073336;28;20051;-42
2023/05/31 09:11:39;;;;;;;5.03;3.40;;;18.20;99.90;;;;;;5083775;28;20024;-43
2023/05/31 09:14:05;;;;;;;5.40;3.60;;;18.20;99.90;;;;;;5084277;28;20043;-43
2023/05/31 09:16:31;;;;;;;5.30;3.13;;;18.30;99.90;;;;;;5083922;28;20445;-42
2023/05/31 09:19:02;;;;;;;6.53;3.13;;;18.40;99.90;;;;;;5083988;28;20619;-43
2023/05/31 09:21:28;;;;;;;4.35;2.70;;;18.50;99.90;;;;;;5083084;28;20478;-43
2023/05/31 09:23:55;;;;;;;4.07;2.90;;;18.60;99.90;;;;;;5084570;28;20024;-43
2023/05/31 09:26:21;;;;;;;5.10;2.45;;;18.60;99.90;;;;;;5084028;28;20084;-40
2023/05/31 09:28:54;;;;;;;8.20;3.60;;;18.70;99.90;;;;;;5083577;28;20081;-43
2023/05/31 09:31:19;;;;;;;;;;;18.80;99.90;;;;;;5084578;28;20024;-41
2023/05/31 09:33:51;;;;;;;4.90;2.53;;;18.90;99.90;;;;;;5082862;28;19907;-42
2023/05/31 09:36:42;;;;;;;5.25;2.97;;;18.90;99.90;;;;;;5083943;28;20463;-43
2023/05/31 09:39:08;;;;;;;9.38;2.70;;;18.90;99.90;;;;;;5078612;28;20070;-43
2023/05/31 09:41:34;;;;;;;6.32;3.05;;;19.00;99.90;;;;;;5082747;28;20059;-42
2023/05/31 09:44:01;;;;;;;5.90;3.15;;;19.00;99.90;;;;;;5083909;28;20712;-43
2023/05/31 09:46:27;;;;;;;4.97;2.63;;;19.10;99.90;;;;;;5083225;28;20031;-42
2023/05/31 09:49:01;;;;;;;4.85;2.50;;;19.10;99.90;;;;;;5083039;28;20105;-42
2023/05/31 09:51:27;;;;;;;3.22;1.90;;;19.10;99.90;;;;;;5083205;28;20032;-41
2023/05/31 09:53:56;;;;;;;4.50;2.50;;;19.20;99.90;;;;;;5083360;28;20459;-42
2023/05/31 09:56:23;;;;;;;4.65;2.20;;;19.20;99.90;;;;;;5082457;28;20036;-45
2023/05/31 09:59:03;;;;;;;2.47;1.95;;;19.30;99.90;;;;;;5083264;28;20472;-43
2023/05/31 10:01:30;;;;;;;4.70;1.92;;;19.40;99.90;;;;;;5082916;28;20039;-42
2023/05/31 10:03:59;;;;;;;2.70;1.67;;;19.40;99.90;;;;;;5082767;28;20463;-43
2023/05/31 10:06:24;;;;;;;2.75;1.80;;;19.50;99.90;;;;;;5082802;28;20023;-43
2023/05/31 10:08:50;;;;;;;3.78;2.05;;;19.50;99.90;;;;;;5082763;28;20019;-43
2023/05/31 10:11:18;;;;;;;3.85;2.33;;;19.60;99.90;;;;;;5083195;28;20031;-41
2023/05/31 10:13:45;;;;;;;5.35;2.92;;;19.60;99.90;;;;;;5082601;28;20032;-43
2023/05/31 10:16:12;;;;;;;6.25;2.47;;;19.70;99.90;;;;;;5082802;28;20139;-44
2023/05/31 10:18:44;;;;;;;4.85;2.05;;;19.80;99.90;;;;;;5082546;28;20020;-42
2023/05/31 10:21:26;;;;;;;6.03;2.60;;;19.90;99.90;;;;;;5080109;28;20032;-42
2023/05/31 10:24:02;;;;;;;7.60;2.80;;;19.90;99.90;;;;;;5082807;28;20027;-42
2023/05/31 10:27:07;;;;;;;6.40;2.80;;;20.00;99.90;;;;;;5082810;28;20036;-41
2023/05/31 10:29:39;;;;;;;4.43;2.20;;;20.10;99.90;;;;;;5071387;28;20406;-43
2023/05/31 10:32:20;;;;;;;4.97;2.20;;;20.10;99.90;;;;;;5082862;28;20027;-43
2023/05/31 10:34:50;;;;;;;5.53;2.33;;;20.10;99.90;;;;;;5082635;28;20531;-41
2023/05/31 10:37:16;;;;;;;5.63;2.88;;;20.10;99.90;;;;;;5083156;28;20034;-43
2023/05/31 10:40:13;;;;;;;3.10;1.92;;;20.20;99.90;;;;;;5081554;28;20036;-42
2023/05/31 10:42:53;;;;;;;3.97;2.03;;;20.20;99.90;;;;;;5075045;28;20140;-42
2023/05/31 10:45:25;;;;;;;4.85;2.30;;;20.30;99.90;;;;;;5086522;28;20760;-43
2023/05/31 10:47:59;;;;;;;3.87;1.83;;;20.30;99.70;;;;;;5087696;28;20062;-42
2023/05/31 10:50:25;;;;;;;4.30;2.28;;;20.40;99.60;;;;;;5086730;28;20028;-42
2023/05/31 10:52:51;;;;;;;5.07;2.67;;;20.40;99.30;;;;;;5087251;28;20035;-42
2023/05/31 10:55:19;;;;;;;3.92;2.17;;;20.50;99.20;;;;;;5087095;28;20064;-43
2023/05/31 10:57:53;;;;;;;3.97;2.08;;;20.60;99.30;;;;;;5086234;28;20147;-43
2023/05/31 11:00:20;;;;;;;6.05;2.40;;;20.60;99.40;;;;;;5086364;28;20017;-44
2023/05/31 11:02:56;;;;;;;4.32;2.33;;;20.60;99.30;;;;;;5086737;28;20032;-43
2023/05/31 11:05:24;;;;;;;3.45;2.00;;;20.70;98.50;;;;;;5085889;28;20387;-43
2023/05/31 11:07:59;;;;;;;2.85;2.00;;;20.80;98.70;;;;;;5086638;28;20051;-43
2023/05/31 11:10:26;;;;;;;4.72;2.60;;;20.80;98.90;;;;;;5086082;28;20030;-43
2023/05/31 11:12:52;;;;;;;4.93;2.38;;;20.90;98.40;;;;;;5086554;28;20022;-43
2023/05/31 11:15:18;;;;;;;5.50;2.78;;;20.90;98.10;;;;;;5086991;28;20032;-43
2023/05/31 11:17:54;;;;;;;6.03;2.47;;;21.00;98.00;;;;;;5086246;28;20047;-43
2023/05/31 11:20:22;;;;;;;5.82;2.30;;;21.00;98.10;;;;;;5086470;28;20035;-43
2023/05/31 11:23:07;;;;;;;5.22;2.40;;;21.00;97.90;;;;;;5085592;28;20463;-43
2023/05/31 11:25:34;;;;;;;2.97;2.05;;;21.00;98.00;;;;;;5085449;28;20032;-42
2023/05/31 11:28:06;;;;;;;5.70;2.75;;;21.00;97.80;;;;;;5085733;28;20028;-43
2023/05/31 11:30:36;;;;;;;4.45;2.30;;;21.10;97.70;;;;;;5085866;28;20027;-42
2023/05/31 11:33:02;;;;;;;3.63;2.05;;;21.10;97.70;;;;;;5086187;28;20035;-44
2023/05/31 11:35:31;;;;;;;3.90;2.17;;;21.20;97.70;;;;;;5085410;28;20024;-43
2023/05/31 11:38:01;;;;;;;4.65;2.35;;;21.30;97.70;;;;;;5085638;28;20490;-43
2023/05/31 11:40:28;;;;;;;6.60;2.80;;;21.20;97.50;;;;;;5085355;28;20032;-43
2023/05/31 11:43:01;;;;;;;6.78;2.42;;;21.30;97.40;;;;;;5085970;28;20024;-43
2023/05/31 11:45:28;;;;;;;3.45;1.95;;;21.30;97.20;;;;;;5084857;28;20042;-42
2023/05/31 11:48:28;;;;;;;7.47;2.72;;;21.40;97.30;;;;;;5085598;28;20020;-43
2023/05/31 11:50:55;;;;;;;4.43;2.20;;;21.40;97.00;;;;;;5066138;28;20100;-43
2023/05/31 11:53:21;;;;;;;3.63;2.10;;;21.50;97.00;;;;;;5079510;28;20024;-42
2023/05/31 11:55:48;;;;;;;3.70;1.98;;;21.50;97.10;;;;;;5083709;28;20024;-43
2023/05/31 11:58:14;;;;;;;6.60;2.80;;;21.50;97.10;;;;;;5085280;28;20114;-42
2023/05/31 12:00:45;;;;;;;4.18;2.63;;;21.60;96.50;;;;;;5084914;28;20846;-42
2023/05/31 12:03:14;;;;;;;6.32;2.95;;;21.60;95.60;;;;;;5086181;28;20107;-43
2023/05/31 12:05:41;;;;;;;5.10;2.90;;;21.70;95.80;;;;;;5085442;28;20101;-43
2023/05/31 12:08:12;;;;;;;6.05;2.63;;;21.70;95.80;;;;;;5085654;28;20034;-44
2023/05/31 12:10:38;;;;;;;5.13;2.67;;;21.70;95.80;;;;;;5091666;28;20477;-43
2023/05/31 12:13:04;;;;;;;7.95;2.95;;;21.80;95.70;;;;;;5099420;28;20016;-43
2023/05/31 12:15:30;;;;;;;7.47;3.17;;;21.80;95.70;;;;;;5084417;28;20027;-43
2023/05/31 12:17:59;;;;;;;5.22;3.10;;;21.80;95.60;;;;;;5085640;28;20028;-43
2023/05/31 12:20:29;;;;;;;5.90;2.70;;;21.80;95.50;;;;;;5084928;28;20027;-42
2023/05/31 12:23:15;;;;;;;4.15;2.42;;;21.80;95.40;;;;;;5084271;28;20431;-44
2023/05/31 12:25:48;;;;;;;5.65;2.90;;;21.90;95.20;;;;;;5084407;28;20848;-44
2023/05/31 12:28:17;;;;;;;5.75;2.60;;;22.00;95.10;;;;;;5084705;28;20024;-44
2023/05/31 12:30:44;;;;;;;5.03;2.42;;;22.00;94.90;;;;;;5084205;28;20051;-43
2023/05/31 12:33:11;;;;;;;6.93;2.53;;;22.10;94.70;;;;;;5085423;28;20056;-43
2023/05/31 12:35:41;;;;;;;6.50;3.00;;;22.10;94.70;;;;;;5080994;28;20662;-43
2023/05/31 12:38:07;;;;;;;4.40;2.47;;;22.20;94.70;;;;;;5085216;28;20036;-43
2023/05/31 12:40:37;;;;;;;3.80;2.20;;;22.20;94.70;;;;;;5084532;28;20020;-43
2023/05/31 12:43:03;;;;;;;4.95;2.30;;;22.20;94.70;;;;;;5084943;28;20039;-43
2023/05/31 12:45:29;;;;;;;3.10;2.05;;;22.20;94.70;;;;;;5083884;28;20063;-42
2023/05/31 12:48:04;;;;;;;4.78;2.58;;;22.20;94.70;;;;;;5085459;28;20035;-42